createdAt,value
2019-05-30T00:01:35.992Z,5.07
2019-05-30T00:04:05.489Z,4.60
2019-05-30T00:06:35.929Z,4.93
2019-05-30T00:09:08.515Z,5.23
2019-05-30T00:11:39.456Z,5.37
2019-05-30T00:14:09.162Z,5.60
2019-05-30T00:16:38.733Z,6.00
2019-05-30T00:19:08.229Z,5.90
2019-05-30T00:21:37.678Z,5.67
2019-05-30T00:24:08.327Z,5.73
2019-05-30T00:26:37.837Z,5.73
2019-05-30T00:29:07.344Z,6.20
2019-05-30T00:31:37.008Z,6.13
2019-05-30T00:34:06.900Z,5.80
2019-05-30T00:36:36.337Z,5.63
2019-05-30T00:39:07.480Z,5.87
2019-05-30T00:41:36.914Z,5.97
2019-05-30T00:44:06.503Z,5.60
2019-05-30T00:46:36.275Z,5.70
2019-05-30T00:49:06.640Z,5.90
2019-05-30T00:51:36.245Z,5.03
2019-05-30T00:54:07.017Z,5.23
2019-05-30T00:56:36.931Z,5.33
2019-05-30T00:59:06.974Z,5.57
2019-05-30T01:01:36.540Z,6.00
2019-05-30T01:04:07.131Z,6.00
2019-05-30T01:06:38.253Z,5.93
2019-05-30T01:09:07.998Z,5.80
2019-05-30T01:11:37.536Z,6.57
2019-05-30T01:14:08.624Z,6.27
2019-05-30T01:16:38.139Z,6.47
2019-05-30T01:19:08.041Z,6.60
2019-05-30T01:21:39.027Z,6.70
2019-05-30T01:24:08.510Z,6.90
2019-05-30T01:26:38.019Z,7.13
2019-05-30T01:29:07.841Z,7.90
2019-05-30T01:31:37.459Z,7.80
2019-05-30T01:34:07.929Z,7.97
2019-05-30T01:36:37.619Z,7.80
2019-05-30T01:39:08.150Z,8.23
2019-05-30T01:41:37.817Z,8.20
2019-05-30T01:44:08.375Z,8.53
2019-05-30T01:46:37.922Z,8.47
2019-05-30T01:49:08.717Z,9.03
2019-05-30T01:51:38.356Z,9.00
2019-05-30T01:54:08.795Z,8.87
2019-05-30T01:56:38.399Z,9.40
2019-05-30T01:59:09.615Z,9.80
2019-05-30T02:01:39.041Z,9.77
2019-05-30T02:04:09.436Z,9.67
2019-05-30T02:06:39.182Z,9.80
2019-05-30T02:09:10.212Z,10.10
2019-05-30T02:11:40.558Z,10.40
2019-05-30T02:14:11.347Z,10.03
2019-05-30T02:16:42.286Z,10.80
2019-05-30T02:19:11.805Z,11.10
2019-05-30T02:21:41.377Z,11.30
2019-05-30T02:24:12.218Z,11.00
2019-05-30T02:26:41.915Z,11.07
2019-05-30T02:29:11.524Z,11.40
2019-05-30T02:31:41.006Z,12.07
2019-05-30T02:34:12.264Z,11.60
2019-05-30T02:36:42.642Z,12.23
2019-05-30T02:39:12.379Z,11.87
2019-05-30T02:41:41.891Z,12.10
2019-05-30T02:44:12.612Z,12.97
2019-05-30T02:46:42.330Z,12.30
2019-05-30T02:49:13.804Z,12.17
2019-05-30T02:51:43.481Z,12.40
2019-05-30T02:54:13.362Z,11.97
2019-05-30T02:56:43.252Z,12.63
2019-05-30T02:59:13.672Z,12.60
2019-05-30T03:02:00.236Z,12.73
2019-05-30T03:04:16.645Z,13.10
2019-05-30T03:06:46.419Z,12.20
2019-05-30T03:09:16.672Z,13.43
2019-05-30T03:11:46.255Z,13.07
2019-05-30T03:14:19.397Z,12.83
2019-05-30T03:16:47.121Z,13.10
2019-05-30T03:19:16.740Z,12.77
2019-05-30T03:21:46.197Z,13.07
2019-05-30T03:24:15.780Z,12.23
2019-05-30T03:26:45.486Z,12.73
2019-05-30T03:29:15.012Z,11.97
2019-05-30T03:31:46.884Z,12.07
2019-05-30T03:34:25.503Z,12.53
2019-05-30T03:36:47.582Z,12.13
2019-05-30T03:39:17.129Z,12.63
2019-05-30T03:41:46.659Z,12.47
2019-05-30T03:44:16.112Z,13.53
2019-05-30T03:46:51.567Z,12.13
2019-05-30T03:49:24.004Z,12.43
2019-05-30T03:51:56.298Z,13.20
2019-05-30T03:54:27.119Z,12.53
2019-05-30T03:57:17.981Z,12.87
2019-05-30T03:59:59.488Z,13.07
2019-05-30T04:02:57.148Z,13.70
2019-05-30T04:05:24.323Z,14.43
2019-05-30T04:07:55.871Z,13.10
2019-05-30T04:10:30.958Z,13.93
2019-05-30T04:13:16.846Z,14.57
2019-05-30T04:15:46.016Z,15.47
2019-05-30T04:18:16.430Z,16.77
2019-05-30T04:20:46.158Z,17.70
2019-05-30T04:23:16.967Z,18.47
2019-05-30T04:25:47.029Z,18.17
2019-05-30T04:28:18.562Z,19.93
2019-05-30T04:30:47.650Z,19.67
2019-05-30T04:33:31.649Z,21.00
2019-05-30T04:35:48.217Z,21.90
2019-05-30T04:38:19.274Z,23.17
2019-05-30T04:40:49.105Z,22.73
2019-05-30T04:43:20.194Z,23.27
2019-05-30T04:45:49.920Z,24.07
2019-05-30T04:48:21.278Z,23.97
2019-05-30T04:50:50.914Z,24.43
2019-05-30T04:53:20.886Z,23.57
2019-05-30T04:55:50.653Z,23.93
2019-05-30T04:58:21.874Z,25.27
2019-05-30T05:00:51.348Z,23.33
2019-05-30T05:03:41.630Z,22.90
2019-05-30T05:05:51.898Z,23.07
2019-05-30T05:08:22.104Z,23.27
2019-05-30T05:10:51.799Z,23.20
2019-05-30T05:13:22.562Z,21.57
2019-05-30T05:15:52.282Z,22.80
2019-05-30T05:18:23.255Z,22.13
2019-05-30T05:20:52.922Z,23.17
2019-05-30T05:23:23.405Z,24.23
2019-05-30T05:26:01.022Z,23.63
2019-05-30T05:28:24.806Z,22.57
2019-05-30T05:30:54.225Z,24.10
2019-05-30T05:33:24.761Z,22.90
2019-05-30T05:35:54.267Z,22.63
2019-05-30T05:38:24.454Z,23.87
2019-05-30T05:40:54.043Z,23.33
2019-05-30T05:43:24.458Z,22.87
2019-05-30T05:45:54.082Z,23.80
2019-05-30T05:48:24.715Z,22.47
2019-05-30T05:50:54.467Z,22.90
2019-05-30T05:53:25.093Z,23.57
2019-05-30T05:55:54.603Z,23.30
2019-05-30T05:58:26.144Z,22.93
2019-05-30T06:01:14.441Z,23.77
2019-05-30T06:03:43.892Z,22.97
2019-05-30T06:06:13.573Z,23.57
2019-05-30T06:08:43.021Z,22.93
2019-05-30T06:11:12.564Z,22.20
2019-05-30T06:13:42.570Z,20.97
2019-05-30T06:16:12.045Z,20.43
2019-05-30T06:18:41.670Z,20.67
2019-05-30T06:21:11.087Z,21.53
2019-05-30T06:23:40.540Z,21.07
2019-05-30T06:26:10.003Z,20.23
2019-05-30T06:28:39.776Z,20.97
2019-05-30T06:31:09.275Z,21.30
2019-05-30T06:33:38.723Z,21.53
2019-05-30T06:36:08.208Z,19.17
2019-05-30T06:38:37.723Z,20.70
2019-05-30T06:41:07.425Z,20.93
2019-05-30T06:43:36.959Z,20.03
2019-05-30T06:46:06.420Z,20.33
2019-05-30T06:48:35.906Z,18.80
2019-05-30T06:51:06.057Z,19.17
2019-05-30T06:53:37.325Z,19.00
2019-05-30T06:56:06.828Z,17.73
2019-05-30T06:58:47.961Z,18.33
2019-05-30T07:01:07.438Z,20.10
2019-05-30T07:03:37.202Z,19.77
2019-05-30T07:06:07.001Z,19.00
2019-05-30T07:08:37.097Z,19.80
2019-05-30T07:11:06.587Z,18.33
2019-05-30T07:13:36.402Z,17.07
2019-05-30T07:16:06.057Z,16.43
2019-05-30T07:18:36.837Z,16.90
2019-05-30T07:21:06.693Z,16.57
2019-05-30T07:23:39.231Z,16.57
2019-05-30T07:26:07.563Z,15.10
2019-05-30T07:28:37.175Z,16.23
2019-05-30T07:31:06.751Z,15.73
2019-05-30T07:33:36.743Z,16.63
2019-05-30T07:36:06.232Z,16.50
2019-05-30T07:38:35.756Z,17.90
2019-05-30T07:41:05.352Z,17.07
2019-05-30T07:43:35.316Z,17.03
2019-05-30T07:46:04.834Z,17.87
2019-05-30T07:48:34.386Z,18.80
2019-05-30T07:51:04.022Z,17.80
2019-05-30T07:53:33.489Z,17.53
2019-05-30T07:56:03.006Z,18.57
2019-05-30T07:58:33.351Z,16.80
2019-05-30T08:01:03.486Z,17.20
2019-05-30T08:03:33.154Z,16.47
2019-05-30T08:06:02.763Z,16.37
2019-05-30T08:08:32.195Z,15.83
2019-05-30T08:11:09.377Z,16.43
2019-05-30T08:13:33.299Z,16.47
2019-05-30T08:16:02.720Z,15.53
2019-05-30T08:18:33.793Z,15.40
2019-05-30T08:21:03.168Z,15.03
2019-05-30T08:23:32.632Z,14.30
2019-05-30T08:26:02.229Z,14.53
2019-05-30T08:28:32.246Z,14.60
2019-05-30T08:31:01.798Z,14.07
2019-05-30T08:33:31.460Z,14.40
2019-05-30T08:36:00.931Z,13.53
2019-05-30T08:38:31.365Z,13.50
2019-05-30T08:41:00.781Z,13.17
2019-05-30T08:43:31.226Z,13.10
2019-05-30T08:46:00.713Z,13.60
2019-05-30T08:48:30.230Z,12.83
2019-05-30T08:50:59.710Z,12.70
2019-05-30T08:53:30.159Z,12.60
2019-05-30T08:55:59.765Z,13.67
2019-05-30T08:58:30.332Z,12.63
2019-05-30T09:01:00.238Z,12.70
2019-05-30T09:03:29.677Z,13.20
2019-05-30T09:06:04.108Z,13.50
2019-05-30T09:08:30.424Z,12.87
2019-05-30T09:11:00.088Z,13.07
2019-05-30T09:13:29.494Z,13.03
2019-05-30T09:15:59.118Z,13.03
2019-05-30T09:18:28.713Z,13.23
2019-05-30T09:20:58.167Z,12.23
2019-05-30T09:23:27.767Z,13.63
2019-05-30T09:25:57.273Z,13.17
2019-05-30T09:28:26.722Z,13.67
2019-05-30T09:30:56.166Z,13.23
2019-05-30T09:33:27.700Z,13.10
2019-05-30T09:36:12.175Z,13.80
2019-05-30T09:38:28.496Z,13.60
2019-05-30T09:40:58.114Z,12.87
2019-05-30T09:43:27.641Z,14.00
2019-05-30T09:45:57.259Z,14.47
2019-05-30T09:48:26.673Z,13.87
2019-05-30T09:50:56.240Z,14.07
2019-05-30T09:53:26.660Z,14.03
2019-05-30T09:55:56.099Z,13.70
2019-05-30T09:58:25.586Z,13.87
2019-05-30T10:00:55.127Z,13.43
2019-05-30T10:03:24.618Z,13.23
2019-05-30T10:05:54.108Z,13.10
2019-05-30T10:08:23.726Z,13.13
2019-05-30T10:10:53.553Z,12.47
2019-05-30T10:13:23.130Z,13.20
2019-05-30T10:15:52.707Z,13.17
2019-05-30T10:18:22.210Z,13.10
2019-05-30T10:20:53.253Z,12.80
2019-05-30T10:23:23.178Z,13.77
2019-05-30T10:25:53.330Z,14.03
2019-05-30T10:28:22.863Z,13.77
2019-05-30T10:30:57.095Z,12.97
2019-05-30T10:33:23.527Z,13.47
2019-05-30T10:35:53.493Z,14.43
2019-05-30T10:38:23.105Z,13.30
2019-05-30T10:40:53.951Z,13.97
2019-05-30T10:43:25.474Z,13.93
2019-05-30T10:45:55.130Z,13.90
2019-05-30T10:48:24.577Z,14.17
2019-05-30T10:50:54.464Z,14.53
2019-05-30T10:53:24.060Z,13.20
2019-05-30T10:55:54.793Z,14.07
2019-05-30T10:58:24.508Z,14.20
2019-05-30T11:00:57.784Z,14.27
2019-05-30T11:03:28.224Z,13.47
2019-05-30T11:06:20.158Z,14.00
2019-05-30T11:08:52.867Z,14.60
2019-05-30T11:11:22.358Z,15.10
2019-05-30T11:13:53.185Z,14.00
2019-05-30T11:16:24.517Z,14.27
2019-05-30T11:18:54.621Z,13.60
2019-05-30T11:21:25.261Z,12.37
2019-05-30T11:23:54.674Z,13.07
2019-05-30T11:26:24.115Z,13.70
2019-05-30T11:28:54.685Z,13.73
2019-05-30T11:31:24.349Z,13.97
2019-05-30T11:33:55.018Z,14.00
2019-05-30T11:36:24.653Z,12.57
2019-05-30T11:38:55.259Z,12.90
2019-05-30T11:41:24.874Z,13.57
2019-05-30T11:43:55.483Z,12.47
2019-05-30T11:46:25.115Z,11.97
2019-05-30T11:48:55.643Z,13.53
2019-05-30T11:51:25.460Z,13.50
2019-05-30T11:53:55.852Z,13.40
2019-05-30T11:56:25.506Z,12.90
2019-05-30T11:58:55.922Z,12.50
2019-05-30T12:01:27.250Z,13.17
2019-05-30T12:03:56.663Z,12.70
2019-05-30T12:06:26.449Z,12.80
2019-05-30T12:08:56.923Z,12.43
2019-05-30T12:11:26.446Z,12.27
2019-05-30T12:13:57.334Z,11.70
2019-05-30T12:16:26.970Z,12.37
2019-05-30T12:18:57.868Z,12.00
2019-05-30T12:21:29.816Z,11.90
2019-05-30T12:24:00.208Z,11.00
2019-05-30T12:26:29.796Z,10.87
2019-05-30T12:29:00.136Z,12.30
2019-05-30T12:31:29.621Z,10.90
2019-05-30T12:34:00.436Z,10.63
2019-05-30T12:36:30.052Z,9.67
2019-05-30T12:39:00.441Z,9.90
2019-05-30T12:41:29.981Z,9.60
2019-05-30T12:43:59.404Z,9.83
2019-05-30T12:46:28.913Z,9.37
2019-05-30T12:48:59.421Z,9.30
2019-05-30T12:51:28.914Z,8.73
2019-05-30T12:53:58.523Z,8.60
2019-05-30T12:56:28.028Z,8.23
2019-05-30T12:58:58.618Z,8.53
2019-05-30T13:01:28.226Z,8.57
2019-05-30T13:03:58.869Z,9.03
2019-05-30T13:06:28.580Z,8.70
2019-05-30T13:08:59.039Z,9.03
2019-05-30T13:11:28.578Z,8.63
2019-05-30T13:13:58.485Z,8.43
2019-05-30T13:16:28.031Z,7.73
2019-05-30T13:18:57.948Z,7.50
2019-05-30T13:21:27.720Z,7.87
2019-05-30T13:23:57.535Z,8.30
2019-05-30T13:26:27.069Z,7.37
2019-05-30T13:28:56.467Z,7.70
2019-05-30T13:31:25.966Z,7.67
2019-05-30T13:33:56.680Z,7.37
2019-05-30T13:36:26.245Z,7.90
2019-05-30T13:38:57.012Z,7.30
2019-05-30T13:41:26.982Z,7.07
2019-05-30T13:43:57.841Z,8.03
2019-05-30T13:46:28.076Z,7.57
2019-05-30T13:48:58.489Z,7.70
2019-05-30T13:51:27.936Z,7.97
2019-05-30T13:53:57.511Z,7.30
2019-05-30T13:56:27.146Z,7.20
2019-05-30T13:58:56.549Z,7.77
2019-05-30T14:01:29.097Z,7.67
2019-05-30T14:03:59.925Z,7.80
2019-05-30T14:06:29.512Z,7.97
2019-05-30T14:09:00.135Z,7.73
2019-05-30T14:11:29.657Z,6.40
2019-05-30T14:14:00.436Z,6.93
2019-05-30T14:16:30.012Z,6.40
2019-05-30T14:19:00.920Z,7.10
2019-05-30T14:21:30.528Z,6.77
2019-05-30T14:24:01.251Z,6.50
2019-05-30T14:26:30.786Z,6.13
2019-05-30T14:29:01.747Z,6.73
2019-05-30T14:31:31.444Z,6.67
2019-05-30T14:34:02.087Z,6.70
2019-05-30T14:36:31.658Z,6.40
2019-05-30T14:39:02.685Z,6.00
2019-05-30T14:41:32.126Z,7.10
2019-05-30T14:44:01.569Z,6.80
2019-05-30T14:46:31.202Z,6.57
2019-05-30T14:49:00.864Z,6.77
2019-05-30T14:51:30.410Z,6.73
2019-05-30T14:54:00.048Z,7.30
2019-05-30T14:56:29.574Z,7.47
2019-05-30T14:58:59.143Z,7.80
2019-05-30T15:01:28.594Z,7.00
2019-05-30T15:03:57.996Z,6.93
2019-05-30T15:06:27.454Z,7.20
2019-05-30T15:08:56.892Z,6.60
2019-05-30T15:11:28.120Z,6.33
2019-05-30T15:13:57.528Z,6.73
2019-05-30T15:16:27.035Z,6.87
2019-05-30T15:18:56.456Z,6.57
2019-05-30T15:21:25.962Z,6.33
2019-05-30T15:23:56.888Z,7.23
2019-05-30T15:26:26.409Z,7.30
2019-05-30T15:28:55.865Z,7.30
2019-05-30T15:31:25.392Z,7.53
2019-05-30T15:33:54.822Z,7.50
2019-05-30T15:36:24.335Z,7.50
2019-05-30T15:38:53.794Z,7.60
2019-05-30T15:41:23.313Z,7.80
2019-05-30T15:43:52.753Z,8.50
2019-05-30T15:46:22.177Z,8.30
2019-05-30T15:48:53.338Z,8.63
2019-05-30T15:51:23.237Z,9.10
2019-05-30T15:53:52.683Z,8.47
2019-05-30T15:56:22.102Z,8.47
2019-05-30T15:58:51.569Z,8.57
2019-05-30T16:01:21.822Z,8.57
2019-05-30T16:03:51.235Z,7.57
2019-05-30T16:06:20.894Z,8.50
2019-05-30T16:08:51.904Z,8.33
2019-05-30T16:11:21.523Z,8.20
2019-05-30T16:13:50.936Z,8.80
2019-05-30T16:16:33.759Z,8.67
2019-05-30T16:18:51.791Z,8.30
2019-05-30T16:21:22.453Z,8.60
2019-05-30T16:23:51.946Z,8.53
2019-05-30T16:26:22.004Z,8.57
2019-05-30T16:28:51.465Z,8.20
2019-05-30T16:31:22.396Z,8.33
2019-05-30T16:33:51.884Z,7.30
2019-05-30T16:36:22.499Z,6.90
2019-05-30T16:38:52.165Z,7.13
2019-05-30T16:41:24.345Z,7.70
2019-05-30T16:43:53.766Z,7.00
2019-05-30T16:46:23.199Z,6.80
2019-05-30T16:48:53.121Z,7.10
2019-05-30T16:51:23.574Z,7.70
2019-05-30T16:53:53.198Z,7.33
2019-05-30T16:56:23.570Z,8.00
2019-05-30T16:58:53.282Z,7.77
2019-05-30T17:01:23.984Z,8.03
2019-05-30T17:03:53.810Z,7.80
2019-05-30T17:06:23.254Z,8.07
2019-05-30T17:08:52.650Z,8.63
2019-05-30T17:11:22.091Z,8.60
2019-05-30T17:13:51.774Z,8.83
2019-05-30T17:16:22.103Z,8.43
2019-05-30T17:18:51.682Z,8.63
2019-05-30T17:21:21.270Z,7.77
2019-05-30T17:23:51.817Z,8.47
2019-05-30T17:26:21.340Z,7.10
2019-05-30T17:28:50.768Z,6.17
2019-05-30T17:31:20.279Z,6.10
2019-05-30T17:33:49.672Z,4.63
2019-05-30T17:36:20.074Z,5.50
2019-05-30T17:38:49.468Z,5.73
2019-05-30T17:41:18.905Z,5.27
2019-05-30T17:43:49.083Z,5.33
2019-05-30T17:46:19.252Z,6.20
2019-05-30T17:48:48.752Z,6.80
2019-05-30T17:51:19.672Z,6.57
2019-05-30T17:53:49.198Z,7.20
2019-05-30T17:56:19.882Z,6.83
2019-05-30T17:58:49.530Z,7.23
2019-05-30T18:01:20.165Z,6.53
2019-05-30T18:03:49.824Z,7.20
2019-05-30T18:06:20.397Z,6.93
2019-05-30T18:08:49.978Z,7.50
2019-05-30T18:11:20.707Z,7.47
2019-05-30T18:13:50.258Z,7.73
2019-05-30T18:16:21.237Z,7.70
2019-05-30T18:18:50.675Z,7.90
2019-05-30T18:21:21.241Z,7.40
2019-05-30T18:23:51.436Z,7.87
2019-05-30T18:26:21.465Z,7.57
2019-05-30T18:28:51.060Z,7.87
2019-05-30T18:31:21.807Z,8.00
2019-05-30T18:33:51.294Z,8.30
2019-05-30T18:36:22.201Z,8.03
2019-05-30T18:38:51.663Z,8.10
2019-05-30T18:41:22.559Z,7.50
2019-05-30T18:43:52.084Z,7.63
2019-05-30T18:46:22.923Z,8.10
2019-05-30T18:48:52.430Z,8.40
2019-05-30T18:51:21.880Z,8.47
2019-05-30T18:53:54.046Z,8.83
2019-05-30T18:56:26.494Z,9.60
2019-05-30T18:58:56.091Z,9.37
2019-05-30T19:01:25.505Z,9.40
2019-05-30T19:03:54.945Z,9.53
2019-05-30T19:06:25.558Z,10.03
2019-05-30T19:08:55.095Z,9.40
2019-05-30T19:11:29.612Z,9.20
2019-05-30T19:13:55.758Z,9.90
2019-05-30T19:16:26.322Z,11.00
2019-05-30T19:18:55.850Z,10.40
2019-05-30T19:21:25.790Z,10.47
2019-05-30T19:23:56.697Z,11.23
2019-05-30T19:26:26.263Z,11.33
2019-05-30T19:28:55.634Z,11.00
2019-05-30T19:31:26.391Z,11.37
2019-05-30T19:33:57.473Z,11.57
2019-05-30T19:36:27.038Z,11.87
2019-05-30T19:38:56.550Z,11.67
2019-05-30T19:41:27.342Z,10.57
2019-05-30T19:43:57.398Z,11.33
2019-05-30T19:46:28.035Z,11.77
2019-05-30T19:48:57.736Z,11.73
2019-05-30T19:51:28.623Z,12.00
2019-05-30T19:53:58.115Z,11.53
2019-05-30T19:56:27.523Z,11.63
2019-05-30T19:58:57.012Z,11.23
2019-05-30T20:01:26.461Z,11.50
2019-05-30T20:03:55.877Z,11.87
2019-05-30T20:06:25.323Z,12.37
2019-05-30T20:08:55.952Z,12.03
2019-05-30T20:11:27.623Z,11.90
2019-05-30T20:13:57.269Z,11.73
2019-05-30T20:16:26.719Z,11.63
2019-05-30T20:18:56.233Z,12.13
2019-05-30T20:21:25.943Z,11.50
2019-05-30T20:23:59.253Z,11.13
2019-05-30T20:26:26.495Z,11.13
2019-05-30T20:28:55.933Z,11.27
2019-05-30T20:31:25.478Z,11.23
2019-05-30T20:33:55.005Z,12.00
2019-05-30T20:36:24.414Z,11.17
2019-05-30T20:38:54.117Z,11.13
2019-05-30T20:41:24.407Z,10.63
2019-05-30T20:43:53.851Z,10.10
2019-05-30T20:46:23.884Z,10.10
2019-05-30T20:48:53.421Z,10.53
2019-05-30T20:51:23.595Z,9.57
2019-05-30T20:53:54.879Z,9.77
2019-05-30T20:56:24.477Z,9.90
2019-05-30T20:58:53.914Z,9.70
2019-05-30T21:01:23.451Z,9.30
2019-05-30T21:03:52.956Z,9.47
2019-05-30T21:06:23.185Z,9.00
2019-05-30T21:08:52.766Z,9.00
2019-05-30T21:11:24.893Z,9.17
2019-05-30T21:13:54.345Z,9.23
2019-05-30T21:16:23.983Z,9.20
2019-05-30T21:18:53.553Z,8.77
2019-05-30T21:21:24.394Z,8.83
2019-05-30T21:23:53.978Z,8.70
2019-05-30T21:26:23.437Z,8.67
2019-05-30T21:28:54.390Z,9.00
2019-05-30T21:31:23.879Z,8.97
2019-05-30T21:33:53.304Z,9.37
2019-05-30T21:36:26.358Z,8.90
2019-05-30T21:38:53.958Z,9.43
2019-05-30T21:41:23.430Z,9.10
2019-05-30T21:43:52.964Z,8.90
2019-05-30T21:46:22.415Z,9.33
2019-05-30T21:48:52.163Z,8.97
2019-05-30T21:51:21.909Z,9.10
2019-05-30T21:53:51.343Z,9.10
2019-05-30T21:56:20.795Z,9.13
2019-05-30T21:58:50.462Z,9.43
2019-05-30T22:01:23.161Z,9.27
2019-05-30T22:03:52.661Z,9.97
2019-05-30T22:06:22.154Z,10.57
2019-05-30T22:08:51.763Z,10.97
2019-05-30T22:11:21.550Z,12.07
2019-05-30T22:13:52.029Z,12.47
2019-05-30T22:16:21.917Z,13.57
2019-05-30T22:18:52.253Z,14.43
2019-05-30T22:21:21.894Z,15.20
2019-05-30T22:23:52.513Z,15.93
2019-05-30T22:26:23.033Z,17.23
2019-05-30T22:28:52.753Z,17.63
2019-05-30T22:31:24.724Z,18.30
2019-05-30T22:33:54.133Z,20.07
2019-05-30T22:36:25.126Z,19.03
2019-05-30T22:38:54.518Z,19.70
2019-05-30T22:41:23.977Z,20.73
2019-05-30T22:43:53.377Z,20.23
2019-05-30T22:46:22.847Z,21.57
2019-05-30T22:48:52.959Z,22.07
2019-05-30T22:51:22.584Z,21.40
2019-05-30T22:53:53.217Z,20.70
2019-05-30T22:56:23.159Z,21.37
2019-05-30T22:58:53.843Z,21.50
2019-05-30T23:01:23.496Z,20.50
2019-05-30T23:03:53.961Z,22.40
2019-05-30T23:06:23.763Z,21.30
2019-05-30T23:08:53.258Z,21.50
2019-05-30T23:11:22.700Z,20.83
2019-05-30T23:13:52.100Z,20.87
2019-05-30T23:16:21.812Z,21.20
2019-05-30T23:18:52.505Z,21.43
2019-05-30T23:21:22.045Z,22.00
2019-05-30T23:23:53.378Z,21.90
2019-05-30T23:26:23.550Z,21.43
2019-05-30T23:28:53.790Z,21.80
2019-05-30T23:31:23.520Z,22.00
2019-05-30T23:33:54.373Z,21.27
2019-05-30T23:36:24.180Z,21.20
2019-05-30T23:38:54.911Z,20.60
2019-05-30T23:41:24.475Z,22.23
2019-05-30T23:44:03.641Z,20.77
2019-05-30T23:46:25.919Z,22.47
2019-05-30T23:48:55.811Z,22.43
2019-05-30T23:51:26.087Z,23.00
2019-05-30T23:53:56.219Z,23.13
2019-05-30T23:56:25.944Z,22.10
2019-05-30T23:58:57.271Z,23.03
